createdAt,value
2019-03-23T00:04:34.329Z,87.70
2019-03-23T00:07:13.310Z,78.90
2019-03-23T00:09:51.297Z,79.00
2019-03-23T00:12:29.649Z,90.50
2019-03-23T00:15:07.909Z,89.80
2019-03-23T00:17:46.231Z,89.50
2019-03-23T00:20:24.188Z,89.30
2019-03-23T00:25:37.484Z,88.40
2019-03-23T00:28:15.487Z,87.80
2019-03-23T00:30:53.452Z,88.50
2019-03-23T00:33:31.442Z,84.70
2019-03-23T00:36:09.534Z,88.30
2019-03-23T00:38:47.614Z,87.80
2019-03-23T00:44:00.931Z,88.30
2019-03-23T00:46:38.902Z,88.10
2019-03-23T00:49:16.837Z,84.90
2019-03-23T00:57:06.463Z,85.60
2019-03-23T00:59:44.507Z,80.10
2019-03-23T01:02:22.523Z,80.20
2019-03-23T01:05:00.497Z,84.50
2019-03-23T01:07:38.469Z,78.20
2019-03-23T01:10:18.337Z,79.30
2019-03-23T01:12:56.951Z,82.60
2019-03-23T01:15:35.043Z,83.20
2019-03-23T01:20:49.864Z,85.10
2019-03-23T01:23:27.465Z,84.50
2019-03-23T01:26:05.648Z,84.20
2019-03-23T01:28:43.554Z,83.00
2019-03-23T01:33:56.814Z,71.80
2019-03-23T01:36:37.629Z,71.40
2019-03-23T01:39:15.870Z,71.80
2019-03-23T01:41:54.033Z,92.20
2019-03-23T01:44:32.102Z,70.00
2019-03-23T01:47:11.125Z,70.10
2019-03-23T01:49:49.181Z,69.90
2019-03-23T01:52:27.382Z,69.30
2019-03-23T01:55:05.392Z,68.50
2019-03-23T01:57:43.459Z,68.30
2019-03-23T02:00:21.628Z,80.50
2019-03-23T02:02:59.672Z,77.40
2019-03-23T02:05:39.422Z,77.90
2019-03-23T02:08:17.437Z,64.60
2019-03-23T02:10:55.487Z,64.30
2019-03-23T02:13:33.534Z,65.30
2019-03-23T02:16:11.716Z,66.80
2019-03-23T02:18:51.598Z,91.30
2019-03-23T02:26:43.413Z,75.40
2019-03-23T02:29:22.883Z,75.20
2019-03-23T02:37:26.850Z,73.50
2019-03-23T02:39:53.590Z,73.90
2019-03-23T02:42:31.559Z,72.90
2019-03-23T02:45:09.798Z,74.60
2019-03-23T02:47:47.717Z,75.00
2019-03-23T02:50:25.729Z,73.30
2019-03-23T02:53:03.850Z,73.90
2019-03-23T02:55:41.917Z,73.40
2019-03-23T03:03:30.341Z,71.10
2019-03-23T03:06:08.507Z,71.20
2019-03-23T03:08:46.524Z,70.70
2019-03-23T03:14:00.068Z,69.70
2019-03-23T03:16:38.180Z,70.20
2019-03-23T03:19:16.201Z,69.00
2019-03-23T03:24:29.434Z,70.00
2019-03-23T03:27:11.680Z,70.00
2019-03-23T03:29:49.726Z,71.00
2019-03-23T03:32:29.940Z,70.70
2019-03-23T03:35:08.138Z,70.60
2019-03-23T03:37:56.583Z,70.40
2019-03-23T03:43:00.556Z,70.20
2019-03-23T03:50:48.790Z,70.80
2019-03-23T03:53:26.931Z,69.80
2019-03-23T03:56:05.011Z,75.40
2019-03-23T03:58:43.275Z,77.00
2019-03-23T04:01:21.615Z,64.10
2019-03-23T04:03:59.695Z,64.80
2019-03-23T04:06:37.958Z,65.50
2019-03-23T04:09:15.957Z,66.20
2019-03-23T04:11:54.012Z,82.00
2019-03-23T04:14:32.111Z,83.20
2019-03-23T04:17:13.932Z,83.50
2019-03-23T04:19:51.837Z,70.10
2019-03-23T04:22:29.865Z,70.50
2019-03-23T04:25:07.976Z,84.20
2019-03-23T04:27:45.913Z,85.90
2019-03-23T04:30:24.072Z,86.20
2019-03-23T04:33:02.011Z,86.50
2019-03-23T04:35:40.055Z,86.60
2019-03-23T04:38:22.477Z,86.60
2019-03-23T04:43:32.309Z,86.80
2019-03-23T04:48:45.439Z,87.40
2019-03-23T04:51:23.440Z,87.20
2019-03-23T04:56:36.685Z,88.10
2019-03-23T05:01:49.966Z,88.60
2019-03-23T05:04:27.987Z,89.40
2019-03-23T05:09:42.066Z,83.80
2019-03-23T05:12:20.643Z,89.50
2019-03-23T05:14:58.804Z,88.20
2019-03-23T05:17:36.851Z,89.40
2019-03-23T05:20:16.158Z,89.20
2019-03-23T05:22:56.206Z,89.40
2019-03-23T05:28:09.636Z,89.80
2019-03-23T05:30:47.630Z,90.10
2019-03-23T05:33:25.655Z,90.00
2019-03-23T05:36:03.646Z,89.90
2019-03-23T05:38:44.532Z,90.00
2019-03-23T05:43:56.125Z,90.20
2019-03-23T05:46:34.115Z,90.30
2019-03-23T05:49:12.109Z,90.50
2019-03-23T05:51:50.116Z,90.50
2019-03-23T05:54:28.188Z,90.50
2019-03-23T05:57:07.224Z,90.60
2019-03-23T05:59:45.400Z,90.60
2019-03-23T06:02:23.400Z,90.80
2019-03-23T06:05:01.465Z,90.30
2019-03-23T06:10:15.244Z,90.50
2019-03-23T06:12:53.870Z,90.20
2019-03-23T06:15:31.867Z,90.30
2019-03-23T06:18:09.848Z,91.20
2019-03-23T06:20:47.842Z,91.90
2019-03-23T06:23:26.007Z,91.50
2019-03-23T06:26:06.362Z,91.50
2019-03-23T06:28:43.141Z,91.40
2019-03-23T06:31:21.085Z,91.60
2019-03-23T06:33:59.102Z,91.50
2019-03-23T06:36:37.129Z,91.50
2019-03-23T06:39:15.613Z,80.80
2019-03-23T06:41:53.663Z,80.50
2019-03-23T06:44:31.591Z,80.70
2019-03-23T06:47:12.130Z,80.90
2019-03-23T06:49:50.360Z,80.70
2019-03-23T06:52:28.402Z,93.40
2019-03-23T06:55:06.376Z,92.70
2019-03-23T06:57:44.594Z,92.90
2019-03-23T07:00:22.720Z,81.20
2019-03-23T07:03:00.927Z,92.70
2019-03-23T07:05:39.867Z,92.80
2019-03-23T07:08:19.614Z,93.40
2019-03-23T07:10:59.706Z,93.00
2019-03-23T07:13:37.579Z,93.10
2019-03-23T07:16:15.745Z,82.10
2019-03-23T07:18:55.037Z,81.60
2019-03-23T18:07:11.525Z,97.90
2019-03-23T18:09:49.567Z,97.80
2019-03-23T18:12:27.541Z,98.20
2019-03-23T18:15:06.211Z,98.30
2019-03-23T18:17:44.156Z,98.50
2019-03-23T18:20:22.636Z,98.80
2019-03-23T18:23:00.603Z,99.00
2019-03-23T18:25:38.506Z,98.90
2019-03-23T18:28:16.485Z,98.90
2019-03-23T18:30:54.556Z,99.00
2019-03-23T18:33:32.530Z,99.00
2019-03-23T18:36:10.496Z,99.20
2019-03-23T18:38:48.522Z,98.80
2019-03-23T18:44:01.583Z,99.10
2019-03-23T18:46:41.080Z,99.30
2019-03-23T18:49:19.029Z,99.20
2019-03-23T18:51:57.291Z,99.20
2019-03-23T18:54:35.309Z,99.20
2019-03-23T18:57:13.372Z,99.20
2019-03-23T18:59:51.376Z,99.00
2019-03-23T19:02:30.757Z,99.00
2019-03-23T19:05:09.138Z,98.90
2019-03-23T19:07:47.399Z,99.10
2019-03-23T19:10:25.395Z,99.10
2019-03-23T19:13:05.996Z,99.20
2019-03-23T19:15:44.013Z,99.10
2019-03-23T19:18:22.007Z,99.00
2019-03-23T19:20:59.915Z,99.00
2019-03-23T19:23:38.232Z,98.80
2019-03-23T19:26:16.174Z,99.10
2019-03-23T19:28:54.325Z,98.90
2019-03-23T19:31:32.556Z,98.90
2019-03-23T19:34:10.646Z,98.80
2019-03-23T19:36:48.598Z,99.00
2019-03-23T19:39:26.556Z,99.10
2019-03-23T19:42:04.479Z,99.00
2019-03-23T19:44:42.453Z,99.10
2019-03-23T19:49:55.429Z,99.90
2019-03-23T19:52:33.634Z,99.20
2019-03-23T19:55:12.202Z,99.20
2019-03-23T19:57:52.739Z,99.40
2019-03-23T20:00:29.691Z,99.30
2019-03-23T20:03:07.707Z,99.30
2019-03-23T20:05:45.843Z,99.60
2019-03-23T20:08:25.622Z,99.40
2019-03-23T20:11:03.302Z,99.60
2019-03-23T20:13:41.781Z,93.30
2019-03-23T20:16:19.996Z,93.40
2019-03-23T20:18:57.943Z,93.30
2019-03-23T20:21:35.967Z,93.10
2019-03-23T20:24:14.073Z,93.00
2019-03-23T20:26:51.974Z,93.10
2019-03-23T20:29:30.605Z,93.10
2019-03-23T20:32:08.782Z,93.20
2019-03-23T20:34:46.738Z,93.30
2019-03-23T20:37:24.759Z,93.30
2019-03-23T20:40:02.709Z,93.30
2019-03-23T20:42:40.674Z,93.20
2019-03-23T20:45:19.846Z,93.20
2019-03-23T20:47:58.093Z,93.20
2019-03-23T20:50:36.168Z,93.20
2019-03-23T20:53:15.507Z,93.20
2019-03-23T20:55:53.568Z,93.20
2019-03-23T20:58:31.542Z,93.40
2019-03-23T21:01:09.721Z,93.30
2019-03-23T21:03:47.708Z,93.30
2019-03-23T21:06:25.615Z,93.30
2019-03-23T21:09:03.608Z,93.40
2019-03-23T21:11:41.619Z,93.40
2019-03-23T21:14:21.827Z,93.40
2019-03-23T21:16:59.786Z,93.40
2019-03-23T21:19:37.692Z,99.90
2019-03-23T21:22:15.687Z,99.90
2019-03-23T21:24:54.050Z,93.30
2019-03-23T21:27:31.987Z,99.90
2019-03-23T21:30:11.240Z,99.90
2019-03-23T21:32:49.220Z,99.90
2019-03-23T21:35:28.424Z,99.90
2019-03-23T21:43:16.595Z,99.90
2019-03-23T21:45:54.640Z,93.40
2019-03-23T21:48:32.709Z,99.90
2019-03-23T21:51:10.779Z,99.90
2019-03-23T21:56:23.846Z,99.90
2019-03-23T21:59:02.978Z,99.90
2019-03-23T22:01:41.096Z,99.90
2019-03-23T22:04:19.460Z,99.50
2019-03-23T22:09:35.792Z,99.40
2019-03-23T22:12:13.759Z,99.30
2019-03-23T22:14:51.727Z,92.00
2019-03-23T22:17:30.141Z,91.90
2019-03-23T22:20:08.726Z,91.70
2019-03-23T22:22:48.903Z,91.50
2019-03-23T22:28:04.378Z,91.90
2019-03-23T22:30:42.784Z,91.10
2019-03-23T22:33:20.805Z,99.90
2019-03-23T22:35:58.938Z,90.50
2019-03-23T22:38:36.976Z,90.30
2019-03-23T22:43:50.398Z,89.60
2019-03-23T22:46:28.543Z,96.10
2019-03-23T22:49:06.765Z,96.20
2019-03-23T22:51:44.975Z,95.90
2019-03-23T22:54:23.023Z,96.70
2019-03-23T22:57:00.957Z,96.30
2019-03-23T22:59:38.954Z,87.30
2019-03-23T23:02:17.593Z,95.90
2019-03-23T23:04:55.898Z,95.80
2019-03-23T23:07:33.945Z,96.80
2019-03-23T23:10:12.249Z,86.80
2019-03-23T23:12:50.497Z,99.90
2019-03-23T23:15:29.594Z,85.20
2019-03-23T23:18:07.521Z,83.80
2019-03-23T23:20:45.563Z,83.50
2019-03-23T23:23:24.226Z,81.60
2019-03-23T23:26:02.656Z,82.20
2019-03-23T23:28:40.639Z,98.60
2019-03-23T23:31:19.807Z,95.20
2019-03-23T23:33:57.840Z,83.20
2019-03-23T23:36:36.311Z,81.90
2019-03-23T23:39:15.331Z,82.20
2019-03-23T23:41:53.365Z,99.50
2019-03-23T23:44:31.922Z,91.10
2019-03-23T23:47:10.375Z,90.30
2019-03-23T23:49:49.736Z,86.00
2019-03-23T23:52:27.694Z,78.50
2019-03-23T23:57:40.691Z,91.10
